createdAt,value
2023-01-13T00:00:12.628Z,1.80
2023-01-13T00:02:38.959Z,1.80
2023-01-13T00:05:05.731Z,2.25
2023-01-13T00:07:32.058Z,2.38
2023-01-13T00:09:58.349Z,2.30
2023-01-13T00:12:24.711Z,2.15
2023-01-13T00:14:50.992Z,1.95
2023-01-13T00:17:17.276Z,2.30
2023-01-13T00:19:44.540Z,2.20
2023-01-13T00:22:10.829Z,2.10
2023-01-13T00:24:37.140Z,2.10
2023-01-13T00:27:03.519Z,1.90
2023-01-13T00:29:29.850Z,2.20
2023-01-13T00:31:56.196Z,2.40
2023-01-13T00:34:22.625Z,1.88
2023-01-13T00:36:48.932Z,1.80
2023-01-13T00:39:15.222Z,1.98
2023-01-13T00:42:00.293Z,1.90
2023-01-13T00:44:26.561Z,1.80
2023-01-13T00:46:52.877Z,1.70
2023-01-13T00:49:19.160Z,2.05
2023-01-13T00:51:45.525Z,1.98
2023-01-13T00:54:11.894Z,1.83
2023-01-13T00:56:40.491Z,1.80
2023-01-13T00:59:08.026Z,1.70
2023-01-13T01:01:34.532Z,1.80
2023-01-13T01:04:00.867Z,1.60
2023-01-13T01:06:27.964Z,1.73
2023-01-13T01:08:55.322Z,1.90
2023-01-13T01:11:22.991Z,1.77
2023-01-13T01:13:51.913Z,1.80
2023-01-13T01:16:19.692Z,2.05
2023-01-13T01:18:47.123Z,1.92
2023-01-13T01:21:13.914Z,2.10
2023-01-13T01:23:40.756Z,2.10
2023-01-13T01:26:08.189Z,2.05
2023-01-13T01:28:34.884Z,1.80
2023-01-13T01:31:05.713Z,2.20
2023-01-13T01:33:32.034Z,1.90
2023-01-13T01:36:00.234Z,1.70
2023-01-13T01:38:26.606Z,1.65
2023-01-13T01:40:52.985Z,1.95
2023-01-13T01:43:39.553Z,1.55
2023-01-13T01:46:06.419Z,1.30
2023-01-13T01:48:34.744Z,1.50
2023-01-13T01:51:01.904Z,1.52
2023-01-13T01:53:29.596Z,1.73
2023-01-13T01:55:57.314Z,1.30
2023-01-13T01:58:37.498Z,1.40
2023-01-13T02:01:04.374Z,1.55
2023-01-13T02:03:30.758Z,1.30
2023-01-13T02:05:57.075Z,1.15
2023-01-13T02:08:23.985Z,1.20
2023-01-13T02:10:52.904Z,1.60
2023-01-13T02:13:20.802Z,1.20
2023-01-13T02:16:08.432Z,1.30
2023-01-13T02:18:53.627Z,1.20
2023-01-13T02:21:35.257Z,1.67
2023-01-13T02:24:20.368Z,1.45
2023-01-13T02:26:58.985Z,1.40
2023-01-13T02:29:53.601Z,1.30
2023-01-13T02:32:25.278Z,1.40
2023-01-13T02:34:57.582Z,1.58
2023-01-13T02:37:31.637Z,1.38
2023-01-13T02:40:07.300Z,1.50
2023-01-13T02:42:53.350Z,1.40
2023-01-13T02:45:23.924Z,1.48
2023-01-13T02:47:51.067Z,1.40
2023-01-13T02:50:18.931Z,1.40
2023-01-13T02:52:57.147Z,1.20
2023-01-13T02:55:26.708Z,1.15
2023-01-13T02:57:53.045Z,1.02
2023-01-13T03:00:19.844Z,1.20
2023-01-13T03:02:47.621Z,1.05
2023-01-13T03:05:15.584Z,0.80
2023-01-13T03:08:00.708Z,0.88
2023-01-13T03:10:26.996Z,0.90
2023-01-13T03:12:53.283Z,0.90
2023-01-13T03:15:28.868Z,0.90
2023-01-13T03:17:55.153Z,0.88
2023-01-13T03:20:24.049Z,1.00
2023-01-13T03:22:56.502Z,0.90
2023-01-13T03:25:26.159Z,0.82
2023-01-13T03:27:54.671Z,0.90
2023-01-13T03:30:23.644Z,0.65
2023-01-13T03:32:52.137Z,0.70
2023-01-13T03:35:18.436Z,0.70
2023-01-13T03:37:47.619Z,0.80
2023-01-13T03:40:19.015Z,0.90
2023-01-13T03:43:07.623Z,1.00
2023-01-13T03:45:34.950Z,0.93
2023-01-13T03:48:03.016Z,0.80
2023-01-13T03:50:32.624Z,1.00
2023-01-13T03:53:02.032Z,0.80
2023-01-13T03:55:33.974Z,1.30
2023-01-13T03:58:14.100Z,1.20
2023-01-13T04:00:44.115Z,1.30
2023-01-13T04:03:11.847Z,1.00
2023-01-13T04:05:43.527Z,1.00
2023-01-13T04:08:24.779Z,1.13
2023-01-13T04:11:00.242Z,0.90
2023-01-13T04:13:28.584Z,1.20
2023-01-13T04:15:54.903Z,0.90
2023-01-13T04:18:25.641Z,0.73
2023-01-13T04:20:52.565Z,0.80
2023-01-13T04:23:19.628Z,0.90
2023-01-13T04:25:46.628Z,0.90
2023-01-13T04:28:13.665Z,0.85
2023-01-13T04:30:40.554Z,0.70
2023-01-13T04:33:07.155Z,0.75
2023-01-13T04:35:34.077Z,0.60
2023-01-13T04:38:01.679Z,0.80
2023-01-13T04:40:27.989Z,0.80
2023-01-13T04:42:54.317Z,0.70
2023-01-13T04:45:20.633Z,0.77
2023-01-13T04:47:48.480Z,0.80
2023-01-13T04:50:15.216Z,0.95
2023-01-13T04:52:41.628Z,0.93
2023-01-13T04:55:08.406Z,0.85
2023-01-13T04:57:37.728Z,0.70
2023-01-13T05:00:08.759Z,0.80
2023-01-13T05:02:35.050Z,0.98
2023-01-13T05:05:01.553Z,0.98
2023-01-13T05:07:27.928Z,0.80
2023-01-13T05:09:54.206Z,0.90
2023-01-13T05:12:39.261Z,0.50
2023-01-13T05:15:24.608Z,0.60
2023-01-13T05:17:51.223Z,0.60
2023-01-13T05:20:18.253Z,0.43
2023-01-13T05:23:03.456Z,0.60
2023-01-13T05:25:29.902Z,0.40
2023-01-13T05:27:57.939Z,0.40
2023-01-13T05:30:31.841Z,0.32
2023-01-13T05:35:24.637Z,0.50
2023-01-13T05:37:51.319Z,0.70
2023-01-13T05:40:56.651Z,0.35
2023-01-13T05:43:24.642Z,0.50
2023-01-13T05:46:01.663Z,0.50
2023-01-13T05:48:32.761Z,0.50
2023-01-13T05:50:59.659Z,0.55
2023-01-13T05:53:26.109Z,0.70
2023-01-13T05:55:52.803Z,0.40
2023-01-13T05:58:22.265Z,0.60
2023-01-13T06:00:48.896Z,0.50
2023-01-13T06:03:16.031Z,0.70
2023-01-13T06:05:42.881Z,0.80
2023-01-13T06:08:09.386Z,0.70
2023-01-13T06:10:36.105Z,0.70
2023-01-13T06:13:03.005Z,0.60
2023-01-13T06:15:29.362Z,0.50
2023-01-13T06:17:57.066Z,0.60
2023-01-13T06:20:23.957Z,0.70
2023-01-13T06:22:51.959Z,0.50
2023-01-13T06:25:21.337Z,0.50
2023-01-13T06:27:48.266Z,0.63
2023-01-13T06:30:14.638Z,0.70
2023-01-13T06:32:44.291Z,0.55
2023-01-13T06:35:12.761Z,0.82
2023-01-13T06:37:39.936Z,0.68
2023-01-13T06:40:06.786Z,0.60
2023-01-13T06:42:52.866Z,0.82
2023-01-13T06:45:19.301Z,0.60
2023-01-13T06:47:45.705Z,0.50
2023-01-13T06:50:12.200Z,0.50
2023-01-13T06:52:38.524Z,0.80
2023-01-13T06:55:05.061Z,1.20
2023-01-13T06:57:31.363Z,0.80
2023-01-13T06:59:57.701Z,1.10
2023-01-13T07:02:24.168Z,0.80
2023-01-13T07:04:50.591Z,0.98
2023-01-13T07:07:16.913Z,1.00
2023-01-13T07:09:43.242Z,0.75
2023-01-13T07:12:09.590Z,0.98
2023-01-13T07:14:54.560Z,1.10
2023-01-13T07:17:25.105Z,1.00
2023-01-13T07:19:52.178Z,0.90
2023-01-13T07:22:18.528Z,0.90
2023-01-13T07:24:44.913Z,1.35
2023-01-13T07:27:11.254Z,0.70
2023-01-13T07:29:37.531Z,0.80
2023-01-13T07:32:04.307Z,0.60
2023-01-13T07:34:30.686Z,1.35
2023-01-13T07:36:57.011Z,0.90
2023-01-13T07:39:23.313Z,0.60
2023-01-13T07:42:08.647Z,0.98
2023-01-13T07:44:35.119Z,0.90
2023-01-13T07:47:01.459Z,0.73
2023-01-13T07:49:27.833Z,0.90
2023-01-13T07:51:54.239Z,1.02
2023-01-13T07:54:25.494Z,1.70
2023-01-13T07:57:02.771Z,1.92
2023-01-13T07:59:29.224Z,1.70
2023-01-13T08:01:55.677Z,1.35
2023-01-13T08:04:22.167Z,1.67
2023-01-13T08:06:49.245Z,1.20
2023-01-13T08:09:16.639Z,1.27
2023-01-13T08:11:43.003Z,1.20
2023-01-13T08:14:09.359Z,1.10
2023-01-13T08:16:38.775Z,1.20
2023-01-13T08:19:06.996Z,0.90
2023-01-13T08:21:33.339Z,1.10
2023-01-13T08:23:59.761Z,1.10
2023-01-13T08:26:26.201Z,1.00
2023-01-13T08:28:52.570Z,0.95
2023-01-13T08:31:19.889Z,0.88
2023-01-13T08:33:46.905Z,1.00
2023-01-13T08:36:13.824Z,1.10
2023-01-13T08:38:40.600Z,1.00
2023-01-13T08:41:15.111Z,1.17
2023-01-13T08:43:41.486Z,0.90
2023-01-13T08:46:07.930Z,1.08
2023-01-13T08:48:34.349Z,1.10
2023-01-13T08:51:05.102Z,0.88
2023-01-13T08:53:31.811Z,1.17
2023-01-13T08:55:58.219Z,0.70
2023-01-13T08:58:25.105Z,1.00
2023-01-13T09:00:51.617Z,0.77
2023-01-13T09:03:17.969Z,1.05
2023-01-13T09:05:44.317Z,0.90
2023-01-13T09:08:10.656Z,1.10
2023-01-13T09:10:36.987Z,1.17
2023-01-13T09:13:12.505Z,1.25
2023-01-13T09:15:43.680Z,1.50
2023-01-13T09:18:10.524Z,1.70
2023-01-13T09:20:37.058Z,1.75
2023-01-13T09:23:03.860Z,2.00
2023-01-13T09:25:30.603Z,2.00
2023-01-13T09:27:57.385Z,0.98
2023-01-13T09:30:24.263Z,1.00
2023-01-13T09:33:10.588Z,1.08
2023-01-13T09:35:36.999Z,1.00
2023-01-13T09:38:03.418Z,0.93
2023-01-13T09:40:29.749Z,0.73
2023-01-13T09:43:21.457Z,1.10
2023-01-13T09:45:50.847Z,1.02
2023-01-13T09:48:26.682Z,0.80
2023-01-13T09:51:14.397Z,1.00
2023-01-13T09:53:48.010Z,1.13
2023-01-13T09:56:14.432Z,1.20
2023-01-13T09:58:40.937Z,1.00
2023-01-13T10:01:26.148Z,1.13
2023-01-13T10:03:53.401Z,1.40
2023-01-13T10:06:21.545Z,1.00
2023-01-13T10:08:48.468Z,1.30
2023-01-13T10:11:33.506Z,1.20
2023-01-13T10:14:01.493Z,1.20
2023-01-13T10:16:42.258Z,1.15
2023-01-13T10:19:13.545Z,1.48
2023-01-13T10:21:55.125Z,1.52
2023-01-13T10:24:44.748Z,1.10
2023-01-13T10:27:27.757Z,3.90
2023-01-13T10:29:54.138Z,3.10
2023-01-13T10:32:20.526Z,1.20
2023-01-13T10:34:51.514Z,1.88
2023-01-13T10:37:21.967Z,1.67
2023-01-13T10:39:49.076Z,3.47
2023-01-13T10:42:16.767Z,4.45
2023-01-13T10:44:47.014Z,3.70
2023-01-13T10:47:19.721Z,3.65
2023-01-13T10:49:58.828Z,2.88
2023-01-13T10:52:27.247Z,4.55
2023-01-13T10:54:54.663Z,3.00
2023-01-13T10:57:22.627Z,2.20
2023-01-13T10:59:50.806Z,2.08
2023-01-13T11:02:25.840Z,1.52
2023-01-13T11:04:53.030Z,1.35
2023-01-13T11:07:33.675Z,1.60
2023-01-13T11:10:30.595Z,1.40
2023-01-13T11:13:01.295Z,1.30
2023-01-13T11:15:38.106Z,1.98
2023-01-13T11:18:18.245Z,1.10
2023-01-13T11:20:46.424Z,1.02
2023-01-13T11:23:18.568Z,1.20
2023-01-13T11:25:46.727Z,0.98
2023-01-13T11:28:25.332Z,1.40
2023-01-13T11:31:11.348Z,3.10
2023-01-13T11:33:42.223Z,1.75
2023-01-13T11:36:20.738Z,1.30
2023-01-13T11:38:50.235Z,3.53
2023-01-13T11:41:22.792Z,3.55
2023-01-13T11:43:59.109Z,3.63
2023-01-13T11:46:28.569Z,3.22
2023-01-13T11:48:56.390Z,2.70
2023-01-13T11:51:22.642Z,1.58
2023-01-13T11:53:55.197Z,1.73
2023-01-13T11:56:28.200Z,1.80
2023-01-13T11:59:00.511Z,2.30
2023-01-13T12:01:45.731Z,2.13
2023-01-13T12:04:18.263Z,2.00
2023-01-13T12:06:46.004Z,2.00
2023-01-13T12:09:48.037Z,2.03
2023-01-13T12:12:20.170Z,1.92
2023-01-13T12:14:46.647Z,2.17
2023-01-13T12:17:22.017Z,2.90
2023-01-13T12:19:49.988Z,2.38
2023-01-13T12:22:20.333Z,1.80
2023-01-13T12:24:46.792Z,2.28
2023-01-13T12:27:36.266Z,2.40
2023-01-13T12:30:17.288Z,1.90
2023-01-13T12:32:43.999Z,1.90
2023-01-13T12:35:16.385Z,2.50
2023-01-13T12:37:55.601Z,2.10
2023-01-13T12:40:21.945Z,2.20
2023-01-13T12:43:16.250Z,2.45
2023-01-13T12:45:42.615Z,2.25
2023-01-13T12:48:31.970Z,2.28
2023-01-13T12:51:01.562Z,2.40
2023-01-13T12:53:33.392Z,2.33
2023-01-13T12:56:20.406Z,2.53
2023-01-13T12:58:46.698Z,2.20
2023-01-13T13:01:14.441Z,2.40
2023-01-13T13:03:41.079Z,2.30
2023-01-13T13:06:14.366Z,2.20
2023-01-13T13:08:48.750Z,2.42
2023-01-13T13:11:38.043Z,2.00
2023-01-13T13:14:06.072Z,2.05
2023-01-13T13:16:36.028Z,1.70
2023-01-13T13:19:18.790Z,1.40
2023-01-13T13:22:03.957Z,1.75
2023-01-13T13:24:32.487Z,2.10
2023-01-13T13:27:16.015Z,2.30
2023-01-13T13:29:49.565Z,1.65
2023-01-13T13:32:36.795Z,2.38
2023-01-13T13:35:21.804Z,2.42
2023-01-13T13:38:13.350Z,2.17
2023-01-13T13:40:59.955Z,2.00
2023-01-13T13:43:46.365Z,2.25
2023-01-13T13:46:42.587Z,2.50
2023-01-13T13:49:09.024Z,1.98
2023-01-13T13:51:39.157Z,1.80
2023-01-13T13:54:09.390Z,1.80
2023-01-13T13:56:38.477Z,1.60
2023-01-13T13:59:04.823Z,1.73
2023-01-13T14:01:39.757Z,1.90
2023-01-13T14:04:20.497Z,1.60
2023-01-13T14:06:51.353Z,1.50
2023-01-13T14:09:18.046Z,1.85
2023-01-13T14:11:56.551Z,1.70
2023-01-13T14:14:23.035Z,1.80
2023-01-13T14:16:51.690Z,1.52
2023-01-13T14:19:27.341Z,1.70
2023-01-13T14:21:53.998Z,2.00
2023-01-13T14:24:22.401Z,1.80
2023-01-13T14:26:51.896Z,1.75
2023-01-13T14:29:24.717Z,2.25
2023-01-13T14:31:52.807Z,2.00
2023-01-13T14:34:31.735Z,1.90
2023-01-13T14:36:59.853Z,1.63
2023-01-13T14:39:33.505Z,1.50
2023-01-13T14:41:59.890Z,1.88
2023-01-13T14:44:27.627Z,1.90
2023-01-13T14:46:56.497Z,1.90
2023-01-13T14:49:36.790Z,1.60
2023-01-13T14:52:07.455Z,1.90
2023-01-13T14:54:41.752Z,1.83
2023-01-13T14:57:27.676Z,2.05
2023-01-13T14:59:56.009Z,1.90
2023-01-13T15:02:25.504Z,1.90
2023-01-13T15:04:58.531Z,2.28
2023-01-13T15:07:26.313Z,2.40
2023-01-13T15:09:57.780Z,2.28
2023-01-13T15:12:39.257Z,2.67
2023-01-13T15:15:06.827Z,5.88
2023-01-13T15:17:34.515Z,2.80
2023-01-13T15:20:03.080Z,2.83
2023-01-13T15:22:29.760Z,9.52
2023-01-13T15:24:56.826Z,3.55
2023-01-13T15:27:25.375Z,3.85
2023-01-13T15:29:51.762Z,3.33
2023-01-13T15:32:19.289Z,2.50
2023-01-13T15:34:46.823Z,1.98
2023-01-13T15:37:17.029Z,2.13
2023-01-13T15:39:44.083Z,2.47
2023-01-13T15:42:34.768Z,2.65
2023-01-13T15:45:20.997Z,2.30
2023-01-13T15:47:48.564Z,2.10
2023-01-13T15:50:16.421Z,2.30
2023-01-13T15:52:43.949Z,1.90
2023-01-13T15:55:10.631Z,1.70
2023-01-13T15:57:38.718Z,2.58
2023-01-13T16:00:08.028Z,2.05
2023-01-13T16:02:34.445Z,2.35
2023-01-13T16:05:00.927Z,2.13
2023-01-13T16:07:27.343Z,2.20
2023-01-13T16:09:53.754Z,2.35
2023-01-13T16:12:20.155Z,1.80
2023-01-13T16:14:46.544Z,2.13
2023-01-13T16:17:20.598Z,2.65
2023-01-13T16:19:47.228Z,2.45
2023-01-13T16:22:14.550Z,1.88
2023-01-13T16:24:41.027Z,1.80
2023-01-13T16:27:13.599Z,1.77
2023-01-13T16:29:41.210Z,2.00
2023-01-13T16:32:07.587Z,1.90
2023-01-13T16:34:34.303Z,1.90
2023-01-13T16:37:00.712Z,2.00
2023-01-13T16:39:27.101Z,2.00
2023-01-13T16:41:53.433Z,1.80
2023-01-13T16:44:19.751Z,1.65
2023-01-13T16:46:47.275Z,1.65
2023-01-13T16:49:14.607Z,1.90
2023-01-13T16:51:41.328Z,1.75
2023-01-13T16:54:07.674Z,1.90
2023-01-13T16:56:34.989Z,1.85
2023-01-13T16:59:08.818Z,2.20
2023-01-13T17:01:37.278Z,2.50
2023-01-13T17:04:04.503Z,2.03
2023-01-13T17:06:30.831Z,1.73
2023-01-13T17:09:01.107Z,2.42
2023-01-13T17:11:27.426Z,1.88
2023-01-13T17:13:54.843Z,2.28
2023-01-13T17:16:22.658Z,2.13
2023-01-13T17:18:49.218Z,2.42
2023-01-13T17:21:15.922Z,2.00
2023-01-13T17:23:42.402Z,3.90
2023-01-13T17:26:17.710Z,2.45
2023-01-13T17:28:45.313Z,1.77
2023-01-13T17:31:11.653Z,2.25
2023-01-13T17:33:38.011Z,1.88
2023-01-13T17:36:04.607Z,1.73
2023-01-13T17:38:30.954Z,2.00
2023-01-13T17:41:01.098Z,1.73
2023-01-13T17:43:27.434Z,2.70
2023-01-13T17:45:53.827Z,1.90
2023-01-13T17:48:20.647Z,1.98
2023-01-13T17:50:47.639Z,1.73
2023-01-13T17:53:13.975Z,1.60
2023-01-13T17:55:40.283Z,2.10
2023-01-13T17:58:06.608Z,2.17
2023-01-13T18:00:33.684Z,2.50
2023-01-13T18:03:01.076Z,2.42
2023-01-13T18:05:27.898Z,1.83
2023-01-13T18:07:54.249Z,2.20
2023-01-13T18:10:20.691Z,2.17
2023-01-13T18:12:46.995Z,5.40
2023-01-13T18:15:13.322Z,2.20
2023-01-13T18:17:39.590Z,2.53
2023-01-13T18:20:24.607Z,2.50
2023-01-13T18:23:09.763Z,2.00
2023-01-13T18:25:55.011Z,2.67
2023-01-13T18:28:21.345Z,3.80
2023-01-13T18:30:48.031Z,2.78
2023-01-13T18:33:14.387Z,2.65
2023-01-13T18:35:40.792Z,2.92
2023-01-13T18:38:08.162Z,1.90
2023-01-13T18:40:34.498Z,2.85
2023-01-13T18:43:00.815Z,2.13
2023-01-13T18:45:28.633Z,2.50
2023-01-13T18:47:55.941Z,2.50
2023-01-13T18:50:22.978Z,2.97
2023-01-13T18:52:49.496Z,2.50
2023-01-13T18:55:15.930Z,2.40
2023-01-13T18:57:42.402Z,2.60
2023-01-13T19:00:10.009Z,2.80
2023-01-13T19:02:36.343Z,2.42
2023-01-13T19:05:02.854Z,3.00
2023-01-13T19:07:31.363Z,2.60
2023-01-13T19:09:59.503Z,2.60
2023-01-13T19:12:26.315Z,2.60
2023-01-13T19:14:56.063Z,2.63
2023-01-13T19:17:23.364Z,3.15
2023-01-13T19:19:54.071Z,2.80
2023-01-13T19:22:27.232Z,2.40
2023-01-13T19:24:53.846Z,2.80
2023-01-13T19:27:20.690Z,2.58
2023-01-13T19:29:52.507Z,2.65
2023-01-13T19:32:20.514Z,3.00
2023-01-13T19:34:49.079Z,2.42
2023-01-13T19:37:15.427Z,2.40
2023-01-13T19:39:43.288Z,2.80
2023-01-13T19:42:29.854Z,2.80
2023-01-13T19:45:15.016Z,2.70
2023-01-13T19:47:41.491Z,3.10
2023-01-13T19:50:08.647Z,3.22
2023-01-13T19:52:35.028Z,2.63
2023-01-13T19:55:01.864Z,2.50
2023-01-13T19:57:28.292Z,2.83
2023-01-13T19:59:54.643Z,3.05
2023-01-13T20:02:31.929Z,2.72
2023-01-13T20:04:59.517Z,2.60
2023-01-13T20:07:26.853Z,2.70
2023-01-13T20:09:53.419Z,3.30
2023-01-13T20:12:20.072Z,2.63
2023-01-13T20:14:49.911Z,3.40
2023-01-13T20:17:17.485Z,2.42
2023-01-13T20:19:44.096Z,2.90
2023-01-13T20:22:10.997Z,2.58
2023-01-13T20:24:37.404Z,2.70
2023-01-13T20:27:04.087Z,2.55
2023-01-13T20:29:30.906Z,3.03
2023-01-13T20:31:57.409Z,2.92
2023-01-13T20:34:24.469Z,2.67
2023-01-13T20:36:50.898Z,2.40
2023-01-13T20:39:18.640Z,2.42
2023-01-13T20:42:03.700Z,2.55
2023-01-13T20:44:30.156Z,2.20
2023-01-13T20:46:57.747Z,2.85
2023-01-13T20:49:24.636Z,2.47
2023-01-13T20:51:51.058Z,3.45
2023-01-13T20:54:17.840Z,2.58
2023-01-13T20:56:44.525Z,2.25
2023-01-13T20:59:11.010Z,2.45
2023-01-13T21:01:37.741Z,2.58
2023-01-13T21:04:05.315Z,2.80
2023-01-13T21:06:31.802Z,2.60
2023-01-13T21:08:58.121Z,2.60
2023-01-13T21:11:44.170Z,2.70
2023-01-13T21:14:34.561Z,3.25
2023-01-13T21:17:01.140Z,2.70
2023-01-13T21:19:27.457Z,2.58
2023-01-13T21:21:53.956Z,2.53
2023-01-13T21:24:20.376Z,2.35
2023-01-13T21:26:48.868Z,2.72
2023-01-13T21:29:15.162Z,2.65
2023-01-13T21:31:41.656Z,2.45
2023-01-13T21:34:09.711Z,2.15
2023-01-13T21:36:36.031Z,2.50
2023-01-13T21:39:02.358Z,3.33
2023-01-13T21:41:47.451Z,2.33
2023-01-13T21:44:33.117Z,2.92
2023-01-13T21:47:18.183Z,3.00
2023-01-13T21:49:44.605Z,2.00
2023-01-13T21:52:14.536Z,2.40
2023-01-13T21:55:01.066Z,3.17
2023-01-13T21:57:27.560Z,2.75
2023-01-13T21:59:53.943Z,2.35
2023-01-13T22:02:31.693Z,3.38
2023-01-13T22:04:58.891Z,2.75
2023-01-13T22:07:25.766Z,2.15
2023-01-13T22:09:52.064Z,2.45
2023-01-13T22:12:22.615Z,2.50
2023-01-13T22:14:49.715Z,2.30
2023-01-13T22:17:16.420Z,2.60
2023-01-13T22:19:43.231Z,2.58
2023-01-13T22:22:14.107Z,2.22
2023-01-13T22:24:43.500Z,2.25
2023-01-13T22:27:10.484Z,2.30
2023-01-13T22:29:37.918Z,1.98
2023-01-13T22:32:04.641Z,1.73
2023-01-13T22:34:31.241Z,2.63
2023-01-13T22:36:57.873Z,2.38
2023-01-13T22:39:24.239Z,2.55
2023-01-13T22:41:50.693Z,2.17
2023-01-13T22:44:17.127Z,1.73
2023-01-13T22:46:43.513Z,3.00
2023-01-13T22:49:11.337Z,3.10
2023-01-13T22:51:37.719Z,3.10
2023-01-13T22:54:04.289Z,3.60
2023-01-13T22:56:30.731Z,2.45
2023-01-13T22:58:58.268Z,3.97
2023-01-13T23:01:25.429Z,3.65
2023-01-13T23:03:52.475Z,2.90
2023-01-13T23:06:19.639Z,3.00
2023-01-13T23:08:46.316Z,3.08
2023-01-13T23:11:13.785Z,2.85
2023-01-13T23:13:42.799Z,3.00
2023-01-13T23:16:13.214Z,2.92
2023-01-13T23:18:42.384Z,2.47
2023-01-13T23:21:10.595Z,2.78
2023-01-13T23:23:37.338Z,2.50
2023-01-13T23:26:03.771Z,2.53
2023-01-13T23:28:30.489Z,3.17
2023-01-13T23:30:56.828Z,3.30
2023-01-13T23:33:23.221Z,2.53
2023-01-13T23:35:56.218Z,3.00
2023-01-13T23:38:22.554Z,2.67
2023-01-13T23:40:48.844Z,3.00
2023-01-13T23:43:15.221Z,3.45
2023-01-13T23:45:41.549Z,3.00
2023-01-13T23:48:08.031Z,2.67
2023-01-13T23:50:34.397Z,3.58
2023-01-13T23:53:00.889Z,2.40
2023-01-13T23:55:27.275Z,3.60
2023-01-13T23:57:53.678Z,3.42
